Time;durP1;ratioP1;P1;durP2;ratioP2;P2;SDS_P1;SDS_P2;PMS_P1;PMS_P2;Temp;Humidity;BMP_temperature;BMP_pressure;BME280_temperature;BME280_humidity;BME280_pressure;Samples;Min_cycle;Max_cycle;Signal;HPM_P1;HPM_P2
2021/05/18 00:04:59;;;;;;;0.22;0.22;;;;;;;11.08;64.13;99210.78;10418219;28;20045;-68
2021/05/18 00:15:22;;;;;;;0.38;0.20;;;;;;;11.02;64.34;99207.56;10418411;28;20049;-68
2021/05/18 00:20:24;;;;;;;1.20;0.45;;;;;;;10.90;64.66;99205.53;10400027;28;20085;-68
2021/05/18 00:25:26;;;;;;;0.40;0.30;;;;;;;10.88;65.09;99208.19;10432504;22;20049;-71
2021/05/18 00:30:27;;;;;;;2.28;0.40;;;;;;;10.86;65.14;99216.16;10400882;28;20140;-70
2021/05/18 00:35:29;;;;;;;0.68;0.30;;;;;;;10.75;66.08;99217.56;10418473;28;20553;-71
2021/05/18 00:40:32;;;;;;;0.50;0.20;;;;;;;10.97;65.28;99213.03;10418303;28;20049;-70
2021/05/18 00:45:36;;;;;;;0.28;0.20;;;;;;;11.09;65.05;99204.56;10418677;28;20040;-71
2021/05/18 00:50:41;;;;;;;0.98;0.40;;;;;;;11.14;65.02;99214.88;10417611;28;20470;-71
2021/05/18 00:55:50;;;;;;;1.02;0.50;;;;;;;11.26;64.85;99209.03;10400697;28;20041;-71
2021/05/18 01:00:55;;;;;;;1.23;0.30;;;;;;;11.37;64.73;99206.72;10417462;28;20549;-72
2021/05/18 01:11:21;;;;;;;1.45;0.40;;;;;;;11.53;64.61;99213.91;10399618;28;20129;-70
2021/05/18 01:16:25;;;;;;;0.40;0.32;;;;;;;11.49;64.82;99207.09;10417330;28;20071;-70
2021/05/18 01:21:27;;;;;;;1.52;0.50;;;;;;;11.50;64.85;99214.03;10416385;28;20135;-71
2021/05/18 01:26:31;;;;;;;0.80;0.40;;;;;;;11.55;64.64;99223.44;10416917;28;20125;-70
2021/05/18 01:31:39;;;;;;;1.95;0.50;;;;;;;11.60;65.15;99229.34;10400805;28;20042;-71
2021/05/18 01:36:42;;;;;;;1.17;0.50;;;;;;;11.58;65.22;99236.44;10400891;28;20037;-70
2021/05/18 01:47:08;;;;;;;2.15;0.50;;;;;;;11.50;65.78;99248.25;10417578;28;20076;-70
2021/05/18 01:52:16;;;;;;;1.05;0.60;;;;;;;11.43;66.23;99245.09;10398697;28;20084;-70
2021/05/18 01:57:20;;;;;;;1.15;0.70;;;;;;;11.48;66.51;99250.97;10399005;28;20042;-71
2021/05/18 02:02:44;;;;;;;1.75;0.85;;;;;;;11.39;67.24;99251.41;10416238;28;20041;-70
2021/05/18 02:07:56;;;;;;;1.33;1.00;;;;;;;11.42;67.15;99261.81;10398541;28;20521;-71
2021/05/18 02:12:58;;;;;;;1.10;1.00;;;;;;;11.48;67.04;99268.53;10416539;28;20053;-71
2021/05/18 02:18:12;;;;;;;0.95;0.95;;;;;;;11.37;67.61;99263.78;10403466;28;20042;-71
2021/05/18 02:28:35;;;;;;;1.60;1.50;;;;;;;11.36;67.66;99278.72;10406981;28;20546;-71
2021/05/18 02:33:38;;;;;;;2.05;1.48;;;;;;;11.32;67.93;99295.56;10425454;28;20510;-71
2021/05/18 02:38:41;;;;;;;2.35;1.92;;;;;;;11.16;68.38;99294.59;10406424;28;20057;-71
2021/05/18 02:43:58;;;;;;;2.08;1.85;;;;;;;11.24;68.27;99300.31;10423963;28;20052;-71
2021/05/18 02:49:15;;;;;;;2.22;2.03;;;;;;;11.19;68.73;99304.94;10424776;28;20535;-71
2021/05/18 02:54:22;;;;;;;2.33;2.13;;;;;;;11.25;68.77;99306.47;10423609;28;20065;-70
2021/05/18 02:59:24;;;;;;;2.20;2.05;;;;;;;11.21;69.21;99311.00;10405214;28;20069;-71
2021/05/18 03:04:27;;;;;;;3.03;2.72;;;;;;;11.35;68.64;99318.25;10405273;28;20059;-70
2021/05/18 03:09:29;;;;;;;3.47;3.17;;;;;;;11.34;69.35;99327.09;10404704;28;20064;-71
2021/05/18 03:14:31;;;;;;;3.47;3.17;;;;;;;11.11;71.25;99331.63;10422230;28;20445;-70
2021/05/18 03:19:33;;;;;;;3.90;3.60;;;;;;;11.11;71.54;99329.00;10421883;28;20450;-70
2021/05/18 03:24:35;;;;;;;4.75;4.45;;;;;;;10.98;72.48;99340.97;10404210;28;20450;-71
2021/05/18 03:29:38;;;;;;;4.93;4.63;;;;;;;10.99;72.68;99350.56;10421502;28;20053;-71
2021/05/18 03:34:39;;;;;;;5.10;4.60;;;;;;;10.89;73.63;99354.53;10421669;28;20042;-71
2021/05/18 03:39:43;;;;;;;5.15;4.78;;;;;;;10.66;74.61;99360.75;10422079;28;20052;-69
2021/05/18 03:44:54;;;;;;;5.20;4.82;;;;;;;10.72;74.62;99368.41;10386883;28;20045;-70
2021/05/18 04:11:27;;;;;;;6.53;6.03;;;;;;;10.55;76.37;99392.78;10420309;28;20383;-70
2021/05/18 04:21:58;;;;;;;5.07;4.65;;;;;;;10.63;75.79;99405.59;10420595;28;20041;-71
2021/05/18 04:38:37;;;;;;;3.45;3.15;;;;;;;10.65;75.15;99416.03;10400868;28;20049;-70
2021/05/18 05:14:15;;;;;;;12.98;12.13;;;;;;;10.67;76.73;99454.50;10417592;28;20046;-71
2021/05/18 05:19:17;;;;;;;14.55;12.35;;;;;;;10.73;75.93;99453.38;10400234;28;20128;-70
2021/05/18 05:24:18;;;;;;;12.63;11.55;;;;;;;10.76;75.51;99456.75;10417070;28;20090;-70
2021/05/18 05:29:21;;;;;;;11.88;11.07;;;;;;;10.92;74.51;99477.97;10417922;28;20038;-70
2021/05/18 05:34:23;;;;;;;11.45;10.65;;;;;;;10.92;74.33;99477.97;10417729;28;20033;-71
2021/05/18 05:39:24;;;;;;;11.02;10.23;;;;;;;10.99;74.39;99487.31;10399724;28;20047;-71
2021/05/18 05:44:26;;;;;;;10.50;9.70;;;;;;;11.15;73.67;99494.56;10417190;28;20116;-71
2021/05/18 05:49:27;;;;;;;11.88;10.82;;;;;;;11.19;74.05;99496.13;10399070;28;20068;-72
2021/05/18 05:54:29;;;;;;;10.95;10.13;;;;;;;11.17;73.13;99498.84;10397784;28;20526;-71
2021/05/18 05:59:31;;;;;;;11.15;10.35;;;;;;;11.26;73.19;99502.84;10397384;28;20397;-71
2021/05/18 06:04:32;;;;;;;9.15;8.57;;;;;;;11.31;72.48;99506.13;10415733;28;20491;-71
2021/05/18 06:09:36;;;;;;;9.98;9.18;;;;;;;11.29;73.22;99505.38;10416648;28;20038;-71
2021/05/18 06:14:46;;;;;;;10.18;9.48;;;;;;;11.29;73.58;99503.59;10399053;28;20041;-71
2021/05/18 06:36:56;;;;;;;10.75;10.05;;;;;;;11.74;72.60;99531.44;10420057;28;20038;-68
2021/05/18 06:41:38;;;;;;;9.55;8.63;;;;;;;11.72;70.72;99524.50;10423508;28;20498;-69
2021/05/18 06:46:52;;;;;;;8.15;7.65;;;;;;;11.71;71.13;99539.47;10425133;28;20553;-68
2021/05/18 06:51:55;;;;;;;8.65;7.85;;;;;;;11.58;69.51;99554.09;10427662;28;20053;-68
2021/05/18 06:57:02;;;;;;;7.95;7.35;;;;;;;11.62;70.12;99563.56;10411986;28;20418;-68
2021/05/18 07:02:04;;;;;;;6.65;6.25;;;;;;;11.68;69.96;99565.06;10410247;28;20068;-69
2021/05/18 07:07:19;;;;;;;9.30;5.95;;;;;;;11.69;70.09;99574.69;10428578;28;20041;-69
2021/05/18 07:12:22;;;;;;;6.63;6.20;;;;;;;11.56;71.59;99583.13;10427220;28;20058;-67
2021/05/18 07:17:24;;;;;;;7.70;6.93;;;;;;;11.42;72.47;99587.25;10424648;28;20401;-68
2021/05/18 07:22:28;;;;;;;7.75;7.05;;;;;;;11.42;71.77;99590.75;10424649;28;20068;-68
2021/05/18 07:27:30;;;;;;;8.82;8.18;;;;;;;11.60;73.89;99597.88;10408873;28;20041;-68
2021/05/18 07:32:31;;;;;;;6.30;5.80;;;;;;;11.72;69.26;99600.88;10424085;28;20057;-68
2021/05/18 07:37:34;;;;;;;7.57;6.88;;;;;;;12.00;71.53;99604.06;10423932;28;20048;-68
2021/05/18 07:42:36;;;;;;;9.25;6.10;;;;;;;12.24;68.78;99602.09;10423038;28;20052;-68
2021/05/18 07:47:38;;;;;;;7.18;6.60;;;;;;;12.23;69.85;99616.19;10406487;28;20490;-67
2021/05/18 08:08:22;;;;;;;7.10;6.50;;;;;;;12.28;69.56;99627.38;10422710;28;20041;-69
2021/05/18 08:13:24;;;;;;;7.13;6.60;;;;;;;12.85;69.17;99624.75;10421028;28;20061;-68
2021/05/18 10:38:47;;;;;;;3.53;2.75;;;;;;;15.92;49.90;99590.59;10472756;28;20041;-70
2021/05/18 10:43:57;;;;;;;3.13;2.55;;;;;;;16.45;48.98;99592.56;10458143;28;20049;-72
2021/05/18 10:49:04;;;;;;;3.47;2.40;;;;;;;16.06;48.55;99582.63;10476984;28;20041;-71
2021/05/18 10:54:24;;;;;;;3.50;2.75;;;;;;;16.08;48.20;99575.44;10444656;28;20083;-70
2021/05/18 10:59:30;;;;;;;3.70;3.40;;;;;;;16.91;45.34;99571.09;10476056;28;20072;-71
2021/05/18 11:04:35;;;;;;;4.15;3.05;;;;;;;17.55;45.81;99566.78;10475129;28;20051;-73
2021/05/18 11:09:39;;;;;;;3.72;3.28;;;;;;;16.79;46.09;99578.03;10473590;28;20041;-73
2021/05/18 11:14:44;;;;;;;3.10;2.30;;;;;;;16.92;45.29;99577.25;10453561;28;20056;-71
2021/05/18 11:19:47;;;;;;;3.72;3.15;;;;;;;16.54;46.00;99575.22;10436708;28;20513;-72
2021/05/18 11:24:50;;;;;;;4.38;3.00;;;;;;;16.97;48.00;99570.69;10440247;28;20057;-72
2021/05/18 11:29:51;;;;;;;3.95;3.65;;;;;;;16.74;46.21;99568.69;10410214;28;20053;-71
2021/05/18 11:35:03;;;;;;;7.15;4.47;;;;;;;16.80;48.53;99565.59;10406773;28;20099;-74
2021/05/18 11:40:13;;;;;;;6.03;4.53;;;;;;;17.46;45.46;99563.91;10424176;28;20073;-74
2021/05/18 11:45:17;;;;;;;5.10;4.28;;;;;;;17.57;45.83;99556.88;10425223;28;20041;-74
2021/05/18 11:50:25;;;;;;;4.03;3.50;;;;;;;17.95;46.03;99560.56;10425184;28;20042;-74
2021/05/18 11:55:30;;;;;;;5.45;4.90;;;;;;;17.34;44.81;99555.78;10426424;28;20402;-73
2021/05/18 12:00:34;;;;;;;6.15;5.57;;;;;;;16.95;45.31;99563.75;10425756;28;20042;-73
2021/05/18 12:06:08;;;;;;;6.97;5.85;;;;;;;16.26;48.62;99586.72;10423822;28;20458;-74
2021/05/18 12:11:12;;;;;;;7.20;6.50;;;;;;;15.56;50.54;99589.16;10258241;29;20070;-73
2021/05/18 12:16:16;;;;;;;7.47;6.38;;;;;;;15.26;52.50;99590.00;10260449;28;20055;-73
2021/05/18 12:21:20;;;;;;;3.92;3.13;;;;;;;15.21;51.16;99585.94;10256361;29;20599;-72
2021/05/18 12:26:22;;;;;;;3.45;3.08;;;;;;;15.14;50.26;99594.25;10368341;23;20095;-71
2021/05/18 12:31:32;;;;;;;3.88;3.47;;;;;;;15.14;51.19;99591.59;10462857;28;20139;-72
2021/05/18 12:36:46;;;;;;;5.47;4.15;;;;;;;15.79;49.78;99590.47;10461336;28;20041;-72
2021/05/18 12:41:50;;;;;;;5.63;3.80;;;;;;;15.42;51.57;99595.28;10460970;28;20045;-72
2021/05/18 12:46:57;;;;;;;4.00;2.75;;;;;;;15.30;50.57;99591.53;10463925;28;20072;-73
2021/05/18 12:52:13;;;;;;;2.45;1.58;;;;;;;15.04;50.70;99594.84;10463790;28;20049;-72
2021/05/18 12:57:21;;;;;;;3.55;1.45;;;;;;;15.16;51.19;99596.78;10465826;28;20049;-72
2021/05/18 13:02:33;;;;;;;6.35;1.73;;;;;;;14.86;51.81;99594.09;10461468;28;20052;-73
2021/05/18 13:07:35;;;;;;;4.95;2.35;;;;;;;15.01;51.30;99582.66;10461057;28;20033;-71
2021/05/18 13:12:37;;;;;;;6.13;3.15;;;;;;;15.93;49.79;99573.72;10459481;28;20049;-71
2021/05/18 13:17:57;;;;;;;3.88;2.42;;;;;;;16.02;49.45;99574.00;10459047;28;20057;-70
2021/05/18 13:23:33;;;;;;;3.97;2.75;;;;;;;16.60;48.40;99565.06;10459097;28;20486;-70
2021/05/18 13:28:36;;;;;;;5.45;3.58;;;;;;;16.95;46.74;99563.75;10458590;28;20041;-70
2021/05/18 13:33:37;;;;;;;3.33;2.72;;;;;;;16.98;47.61;99561.75;10457324;28;20041;-70
2021/05/18 13:38:39;;;;;;;3.13;2.38;;;;;;;17.07;47.12;99557.63;10459215;28;20045;-70
2021/05/18 13:43:41;;;;;;;4.05;3.45;;;;;;;17.40;47.56;99557.22;10456874;28;20040;-70
2021/05/18 13:48:43;;;;;;;3.70;3.38;;;;;;;17.64;47.18;99554.69;10458577;28;20045;-71
2021/05/18 13:53:45;;;;;;;5.00;3.88;;;;;;;17.45;47.57;99543.63;10457644;28;20116;-71
2021/05/18 13:58:53;;;;;;;3.55;3.10;;;;;;;17.66;44.48;99542.13;10458734;28;20115;-71
2021/05/18 14:03:55;;;;;;;3.97;2.70;;;;;;;17.76;45.67;99534.41;10441412;28;20052;-71
2021/05/18 14:08:57;;;;;;;5.28;2.90;;;;;;;17.78;48.29;99529.84;10458390;28;20072;-71
2021/05/18 14:13:59;;;;;;;6.00;3.70;;;;;;;16.95;48.39;99531.88;10465154;28;20469;-71
2021/05/18 14:19:01;;;;;;;3.47;2.65;;;;;;;17.65;47.85;99519.16;10465950;28;20037;-71
2021/05/18 14:24:13;;;;;;;4.10;2.22;;;;;;;17.66;46.18;99515.53;10466234;28;20497;-70
2021/05/18 14:29:15;;;;;;;4.28;2.75;;;;;;;17.12;49.08;99521.84;10464402;28;20539;-70
2021/05/18 14:34:16;;;;;;;4.05;2.70;;;;;;;16.82;49.49;99529.19;10467490;28;20079;-71
2021/05/18 14:39:24;;;;;;;3.95;3.00;;;;;;;16.77;50.02;99533.94;10466364;28;20043;-69
2021/05/18 14:44:28;;;;;;;5.10;2.83;;;;;;;16.81;50.70;99530.16;10464080;28;20037;-69
2021/05/18 14:55:09;;;;;;;6.75;2.72;;;;;;;18.13;45.28;99535.34;10464452;28;20045;-69
2021/05/18 15:00:11;;;;;;;3.83;2.15;;;;;;;17.31;46.09;99541.84;10463735;28;20124;-70
2021/05/18 15:05:14;;;;;;;4.22;2.17;;;;;;;16.65;47.81;99539.09;10465793;28;20406;-72
2021/05/18 15:10:16;;;;;;;3.60;2.60;;;;;;;16.93;47.09;99534.66;10464586;28;20045;-73
2021/05/18 15:15:18;;;;;;;3.70;2.05;;;;;;;17.29;47.83;99518.06;10463152;28;20044;-71
2021/05/18 15:20:19;;;;;;;4.32;2.35;;;;;;;17.38;46.14;99516.59;10463935;28;20041;-71
2021/05/18 15:25:21;;;;;;;3.20;2.15;;;;;;;18.07;44.50;99512.69;10461470;28;20075;-72
2021/05/18 15:30:23;;;;;;;3.50;2.47;;;;;;;17.09;46.44;99513.25;10464303;28;20041;-71
2021/05/18 15:35:25;;;;;;;3.05;2.60;;;;;;;16.83;45.97;99515.00;10462498;28;20383;-72
2021/05/18 15:40:27;;;;;;;2.60;2.30;;;;;;;16.31;48.55;99529.78;10462017;28;20041;-72
2021/05/18 15:45:29;;;;;;;2.88;2.00;;;;;;;16.52;47.73;99524.91;10463518;28;20562;-72
2021/05/18 15:50:34;;;;;;;2.42;2.00;;;;;;;16.37;46.35;99534.69;10462115;28;20123;-72
2021/05/18 15:55:35;;;;;;;3.83;2.10;;;;;;;16.27;47.91;99527.41;10462585;28;20067;-71
2021/05/18 16:00:37;;;;;;;3.53;1.90;;;;;;;16.10;48.52;99534.63;10460885;28;20491;-71
2021/05/18 16:05:39;;;;;;;3.05;2.42;;;;;;;16.01;48.84;99537.84;10463705;28;20391;-71
2021/05/18 16:10:40;;;;;;;2.72;1.77;;;;;;;16.20;48.22;99539.34;10462000;28;20040;-72
2021/05/18 16:15:43;;;;;;;2.95;1.92;;;;;;;16.56;48.20;99544.16;10461218;28;20116;-73
2021/05/18 16:20:44;;;;;;;3.08;1.80;;;;;;;16.92;46.76;99540.94;10460961;28;20063;-71
2021/05/18 16:25:49;;;;;;;2.85;2.03;;;;;;;16.71;48.17;99536.97;10461091;28;20041;-71
2021/05/18 16:30:51;;;;;;;2.85;1.65;;;;;;;16.75;47.37;99541.19;10460336;28;20040;-71
2021/05/18 16:35:53;;;;;;;0.80;0.70;;;;;;;16.98;44.84;99540.50;10460068;28;20110;-71
2021/05/18 16:40:57;;;;;;;0.70;0.40;;;;;;;17.04;43.84;99541.91;10460621;28;20041;-72
2021/05/18 16:46:00;;;;;;;1.30;0.60;;;;;;;16.59;45.15;99547.44;10460694;28;20044;-72
2021/05/18 16:51:05;;;;;;;2.13;1.40;;;;;;;16.09;47.45;99567.41;10460465;28;20518;-71
2021/05/18 16:56:07;;;;;;;1.77;1.05;;;;;;;14.78;49.86;99581.28;10460550;28;20123;-70
2021/05/18 17:01:09;;;;;;;1.48;0.88;;;;;;;14.46;49.94;99592.78;10459937;28;20100;-70
2021/05/18 17:06:11;;;;;;;1.35;0.68;;;;;;;14.14;50.24;99595.38;10442315;28;20574;-71
2021/05/18 17:11:12;;;;;;;2.85;0.90;;;;;;;13.88;50.60;99599.38;10461086;28;20052;-72
2021/05/18 17:16:14;;;;;;;1.15;0.60;;;;;;;13.72;51.52;99595.81;10460566;28;20498;-70
2021/05/18 17:21:16;;;;;;;0.73;0.70;;;;;;;13.66;53.29;99620.78;10459486;28;20044;-71
2021/05/18 17:26:18;;;;;;;1.20;0.68;;;;;;;13.71;54.73;99663.66;10458378;28;20395;-71
2021/05/18 17:31:20;;;;;;;1.88;1.20;;;;;;;12.63;60.37;99681.13;10460272;28;20120;-72
2021/05/18 17:36:24;;;;;;;1.65;1.10;;;;;;;11.85;61.48;99681.09;10460139;28;20116;-72
2021/05/18 17:41:26;;;;;;;3.97;0.90;;;;;;;11.53;64.47;99679.78;10458990;28;20067;-72
2021/05/18 17:46:33;;;;;;;2.78;1.23;;;;;;;11.19;67.89;99678.50;10458517;28;20463;-72
2021/05/18 17:51:35;;;;;;;1.73;0.80;;;;;;;11.01;69.67;99689.75;10460587;28;20079;-72
2021/05/18 17:56:38;;;;;;;0.70;0.60;;;;;;;10.81;71.11;99685.28;10461025;28;20068;-71
2021/05/18 18:01:41;;;;;;;2.13;0.90;;;;;;;10.78;71.62;99686.25;10459753;28;20064;-70
2021/05/18 18:06:42;;;;;;;1.77;0.80;;;;;;;10.65;71.79;99684.13;10458611;28;20047;-71
2021/05/18 18:11:44;;;;;;;1.33;0.90;;;;;;;10.55;72.41;99688.88;10456915;28;20144;-69
2021/05/18 18:16:47;;;;;;;3.38;0.90;;;;;;;10.71;73.34;99684.75;10457772;28;20049;-71
2021/05/18 18:21:51;;;;;;;1.80;1.00;;;;;;;10.81;73.56;99674.75;10457985;28;20048;-71
2021/05/18 18:26:52;;;;;;;2.05;1.00;;;;;;;10.83;74.08;99670.28;10469817;22;20401;-66
2021/05/18 18:31:54;;;;;;;0.95;0.80;;;;;;;10.89;74.23;99661.31;10439641;28;20134;-67
2021/05/18 18:36:57;;;;;;;1.10;1.00;;;;;;;10.92;74.19;99648.03;10457908;28;20095;-68
2021/05/18 18:41:59;;;;;;;3.13;1.20;;;;;;;10.98;73.49;99640.78;10461136;28;20410;-68
2021/05/18 18:47:01;;;;;;;0.93;0.77;;;;;;;11.09;72.94;99646.47;10456876;28;20037;-68
2021/05/18 18:52:06;;;;;;;1.25;1.05;;;;;;;11.01;72.50;99645.03;10456366;28;20439;-68
2021/05/18 18:57:07;;;;;;;2.35;0.80;;;;;;;10.97;72.49;99648.72;10456589;28;20063;-67
2021/05/18 19:02:10;;;;;;;2.45;1.10;;;;;;;11.00;72.59;99657.34;10463726;28;20049;-67
2021/05/18 19:07:33;;;;;;;1.52;1.00;;;;;;;10.96;72.30;99661.00;10463049;28;20044;-68
2021/05/18 19:12:47;;;;;;;1.30;0.93;;;;;;;10.98;72.14;99667.09;10465052;28;20049;-68
2021/05/18 19:17:48;;;;;;;2.00;1.27;;;;;;;10.73;73.40;99679.44;10463020;28;20379;-68
2021/05/18 19:22:50;;;;;;;1.20;0.80;;;;;;;10.67;73.82;99684.94;10462969;28;20060;-68
2021/05/18 19:27:54;;;;;;;1.05;0.85;;;;;;;10.67;74.52;99692.81;10462263;28;20564;-67
2021/05/18 19:32:56;;;;;;;1.65;1.10;;;;;;;10.83;75.08;99693.97;10462101;28;20045;-68
2021/05/18 19:48:41;;;;;;;2.88;1.40;;;;;;;10.85;75.71;99706.13;10443671;28;20043;-68
2021/05/18 19:53:43;;;;;;;2.17;1.55;;;;;;;11.27;74.57;99704.53;10462627;28;20509;-68
2021/05/18 20:10:03;;;;;;;1.95;1.55;;;;;;;10.60;77.86;99735.09;10460930;28;20114;-68
2021/05/18 20:20:17;;;;;;;2.90;1.60;;;;;;;10.70;76.27;99722.47;10460650;28;20047;-68
2021/05/18 20:25:18;;;;;;;1.85;1.58;;;;;;;10.56;76.94;99736.13;10461541;28;20041;-69
2021/05/18 20:30:20;;;;;;;1.63;1.52;;;;;;;10.81;73.39;99738.72;10442162;28;20064;-68
2021/05/18 20:35:33;;;;;;;1.38;0.90;;;;;;;10.73;73.18;99742.53;10460104;28;20041;-69
2021/05/18 20:40:37;;;;;;;3.13;1.40;;;;;;;10.66;74.44;99739.28;10442626;28;20049;-68
2021/05/18 20:45:38;;;;;;;2.17;1.58;;;;;;;10.79;73.76;99739.69;10460306;28;20047;-68
2021/05/18 20:50:41;;;;;;;2.10;1.35;;;;;;;10.35;75.23;99740.38;10460237;28;20452;-68
2021/05/18 20:55:43;;;;;;;1.70;1.38;;;;;;;10.07;76.36;99739.59;10441679;28;20410;-68
2021/05/18 21:00:45;;;;;;;1.60;1.50;;;;;;;10.29;74.83;99743.22;10459549;28;20401;-67
2021/05/18 21:05:47;;;;;;;3.33;1.70;;;;;;;10.03;76.02;99740.63;10440850;28;20151;-67
2021/05/18 21:15:52;;;;;;;1.95;1.70;;;;;;;9.84;76.58;99749.13;10458236;28;20052;-66
2021/05/18 21:20:55;;;;;;;2.10;1.88;;;;;;;9.65;76.86;99748.03;10457023;28;20048;-66
2021/05/18 21:25:57;;;;;;;3.78;1.80;;;;;;;9.33;77.36;99743.78;10440385;28;20055;-66
2021/05/18 21:30:59;;;;;;;2.33;2.08;;;;;;;9.22;77.89;99751.13;10457958;28;20048;-68
2021/05/18 21:36:00;;;;;;;2.33;2.13;;;;;;;9.15;77.77;99755.69;10457597;28;20044;-67
2021/05/18 21:41:05;;;;;;;2.10;1.50;;;;;;;9.15;76.64;99752.22;10439390;28;20049;-67
2021/05/18 21:46:07;;;;;;;1.70;1.60;;;;;;;9.44;76.44;99757.44;10439375;28;20059;-67
2021/05/18 21:51:08;;;;;;;1.73;1.48;;;;;;;9.37;76.54;99773.41;10457293;28;20051;-67
2021/05/18 21:56:10;;;;;;;1.25;0.98;;;;;;;9.18;75.47;99773.97;10457410;28;20045;-67
2021/05/18 22:01:11;;;;;;;1.08;0.90;;;;;;;8.98;75.15;99776.31;10456519;28;20037;-67
2021/05/18 22:06:13;;;;;;;0.98;0.88;;;;;;;8.88;74.40;99772.25;10457970;28;20053;-67
2021/05/18 22:27:04;;;;;;;1.50;1.10;;;;;;;9.22;73.59;99753.75;10456518;28;20060;-66
2021/05/18 22:32:07;;;;;;;1.00;0.80;;;;;;;9.01;73.65;99765.75;10440568;28;20052;-67
2021/05/18 22:37:08;;;;;;;1.23;1.02;;;;;;;8.75;74.55;99769.13;10447243;28;20479;-66
2021/05/18 22:42:10;;;;;;;0.93;0.88;;;;;;;8.67;75.11;99771.94;10464124;28;20040;-66
2021/05/18 22:47:11;;;;;;;1.25;0.90;;;;;;;8.70;75.67;99757.91;10446359;28;20048;-67
2021/05/18 22:52:13;;;;;;;1.10;0.90;;;;;;;8.84;73.68;99748.75;10464172;28;20445;-68
2021/05/18 22:57:15;;;;;;;1.45;0.98;;;;;;;8.95;74.14;99752.84;10463533;28;20517;-67
2021/05/18 23:02:16;;;;;;;1.25;1.10;;;;;;;8.68;75.63;99757.13;10463422;28;20051;-67
2021/05/18 23:07:21;;;;;;;2.45;0.90;;;;;;;8.53;75.97;99759.25;10463411;28;20052;-67
2021/05/18 23:12:22;;;;;;;1.60;1.10;;;;;;;8.53;75.92;99759.25;10462943;28;20053;-69
2021/05/18 23:17:26;;;;;;;1.67;1.00;;;;;;;8.60;76.03;99757.31;10462697;28;20453;-68
2021/05/18 23:22:28;;;;;;;0.93;0.77;;;;;;;8.75;75.95;99763.88;10462103;28;20133;-68
2021/05/18 23:27:30;;;;;;;1.35;1.05;;;;;;;8.79;75.67;99749.78;10462540;28;20045;-68
2021/05/18 23:32:31;;;;;;;1.25;0.93;;;;;;;8.95;75.19;99751.06;10462464;28;20556;-68
2021/05/18 23:37:34;;;;;;;1.13;1.00;;;;;;;8.50;76.44;99748.88;10443579;28;20132;-67
2021/05/18 23:42:36;;;;;;;5.07;1.00;;;;;;;8.34;77.33;99748.38;10443234;28;20075;-67
2021/05/18 23:47:38;;;;;;;1.00;0.90;;;;;;;8.28;77.51;99739.84;10461148;28;20077;-67
2021/05/18 23:52:40;;;;;;;1.27;1.17;;;;;;;8.33;77.83;99745.81;10460717;28;20048;-67
2021/05/18 23:57:41;;;;;;;1.27;0.90;;;;;;;8.33;77.86;99737.97;10460807;28;20475;-67
